Lock Haven, PA

8:22 PM EDT on August 03, 2015 (GMT -0400)
297 McElhattan Drive | | Change Station
CLOSE
Current Station
Personal Weather Station
Location: McElhattan, PA
Elevation: 568 ft
Nearby Weather Stations

Elev 568 ft 41.16 °N, 77.36 °W | Updated 6 minutes ago

Mostly Cloudy
Mostly Cloudy
74.3 °F
Feels Like 76 °F
N
0.0
Wind Variable Wind from WSW
Gusts 0.0 mph

Today
High -- | Low -- °F
--% Chance of Precip.
Yesterday
High -- | Low -- °F
Precip. -- in
6:06 AM 8:24 PM
Waning Gibbous, 83% visible
Pressure 29.76 in
Visibility 10.0 miles
Clouds Mostly Cloudy 12000 ft
Heat Index 76 °F
Dew Point 63 °F
Humidity 67%
Rainfall 0.00 in
Snow Depth Not available.
UV 0.0 out of 12
Pollen 7.00 out of 12
Air Quality Not available.
Flu Activity Not available.
METAR KIPT 032354Z 21006KT 10SM BKN120 27/15 A2977 RMK AO2 SLP077 T02720150 10317 20272 53001

More Conditions Fewer Conditions

Pressure 29.76 in
Visibility 10.0 miles
Clouds Mostly Cloudy 12000 ft
Heat Index 76 °F
Dew Point 63 °F
Humidity 67%
Rainfall 0.00 in
Snow Depth Not available.
UV 0.0 out of 12
Pollen 7.00 out of 12
Air Quality Not available.
Flu Activity Not available.
METAR KIPT 032354Z 21006KT 10SM BKN120 27/15 A2977 RMK AO2 SLP077 T02720150 10317 20272 53001

More Conditions Fewer Conditions

10-Day Weather Forecast

×

Almanac

Astronomy

Aug. 03, 2015 Rise Set
Actual Time
Civil Twilight
Nautical Twilight
Astronomical Twilight
Moon
Length of Visible Light
Length of Day
Tomorrow will be .
, % of the Moon is Illuminated

Today's Extremes

State Highs State Lows

Community

WunderPhotos

Upload Photos

1,843,793 photos uploaded!

WunderBlogs® & News

Nearby

Air Quality

  Air Quality AQ Index Pollutant
Not available.

Snow Depth

Station Depth Elevation

Earthquake Activity

City Distance Mag. Time & Date
Minimum magnitude displayed is 2.5.

Coastal Water Temperatures

Place Temperature

Stations

Nearby Weather Stations

Station Location Temp. Windchill Dew Point Humidity Wind Precip. Elev Updated Type